Rison, Maryland
Current Conditions -  °F | °C
As of 6:56 PM on Wednesday 22 Oct 2014 (Local Time) from KNYG Reporting Station
Overcast Overcast  
Wind Chill: 56°   Ceiling: 4200
Heat Index: 56°   Visibility: 10mi
Dew Point: 47°   Wind: 13mph
Humidity: 72%   Direction: 330°NNW
Pressure: 29.95"   Gusts: 22mph
Location:  38.5593°N, 77.1565°W
Report Text: KNYG 222256Z AUTO 33011G19KT 10SM OVC042 13/08 A2995 RMK AO2 RAE2158 SLP143 P0000 T01330083 $
Loading
Personal Weather Stations






























Interactive Weather Map
Tropical Storm Tracking
New forecast layout! Learn more

10-Day Weather Forecast

Advertisements
Track Severe Weather on mobile